Sao Sebastiao da Grama, Brazil
Current Conditions -  °F | °C
As of 3:00 PM on Thursday 30 Oct 2014 (Local Time) from SBYS Reporting Station
Scattered Clouds Scattered Clouds  
Wind Chill: 93°   Ceiling: Unl
Heat Index: 93°   Visibility: 6mi
Dew Point: 52°   Wind: 13mph
Humidity: 24%   Direction: 310°NW
Pressure: 29.83"   Gusts: NA
Location:  21.71°S, 46.82°W
Report Text: SBYS 301700Z 31011KT 9999 SCT045 34/11 Q1010
Loading
Personal Weather Stations






























Interactive Weather Map
Tropical Storm Tracking
New forecast layout! Learn more

10-Day Weather Forecast

Advertisements
Track Severe Weather on mobile